Main page
METAR-TAF:

METAR-TAF

Airports :

Minsk-1 Airport

Minsk-1, Belarus

latitude: 53-51-54N, longitude: 027-32-30E, elevation: 228 m

Current weather observation

The report was made 11 hours and 57 minutes ago, at 14:30 UTC
Wind 10 kt from the East/Northeast with gusts up to 16 kt
Temperature 19°C
Humidity 34%
Pressure 1024 hPa
Visibility 10 km or more
no clouds below 1500 m and no cumulonimbus

METAR: UMMM 211430Z 06005G08MPS CAVOK 19/03 Q1024 R12/55D NOSIG RMK QFE747

Time: 05:27 (02:27 UTC)

Forecast

The report was made 12 hours and 24 minutes ago, at 14:03 UTC
Forecast valid from 21 at 15 UTC to 21 at 24 UTC
Wind 14 kt from the East/Northeast with gusts up to 23 kt
Visibility 10 km or more
Broken clouds at a height of 3000 ft
Temporary
from 21 at 15 UTC to 21 at 24 UTC
Visibility: 3000 m
Broken clouds at a height of 700 ft
Broken clouds at a height of 2500 ft, Cumulonimbus.
light rain showers

TAF: UMMM 211403Z 2115/2124 06007G12MPS 9999 BKN030 TEMPO 2115/2124 3000 -SHRA BKN007 BKN025CB

Weather observations and forecasts of more than 4000 airports (METAR and TAF reports).

The available stations are represented by yellow and red dots on the map.

Hover mouse over dot to see the name of the station.

Then click to see weather observations and forecasts.

To change the map : click on the green buttons with a black cross to zoom in, on the green button with a dash to zoom out, or on the green arrows for adjacent maps.


METAR-TAF: